This is the latest recevied weather packets stored in our database for station/object OE-11365. If no packets are shown the sender has not sent any weather packets the latest 10 day(s).
| Time | Temp. | Humidity | Pressure | Rain* | Wind** | Luminosity | Snow |
|---|---|---|---|---|---|---|---|
| 1787778704 | 17.78° C | 85% | 1017.9 hPa | 0 mm | - | 0 W/m² | - |
| 1787778337 | 17.22° C | 88% | 1018 hPa | 0 mm | - | 0 W/m² | - |
| 1787777731 | 17.22° C | 88% | 1018.1 hPa | 0 mm | - | 0 W/m² | - |
| 1787776904 | 17.78° C | 85% | 1017.9 hPa | 0 mm | - | 0 W/m² | - |
| 1787776530 | 18.89° C | 82% | 1017.4 hPa | 0 mm | - | 0 W/m² | - |
| 1787775931 | 18.89° C | 82% | 1017.5 hPa | 0 mm | - | 0 W/m² | - |
| 1787775105 | 18.89° C | 81% | 1017.6 hPa | 0 mm | - | 0 W/m² | - |
| 1787774731 | 18.89° C | 82% | 1017.6 hPa | 0 mm | - | 0 W/m² | - |
| 1787774131 | 18.89° C | 83% | 1017.7 hPa | 0 mm | - | 0 W/m² | - |
| 1787773304 | 18.89° C | 84% | 1017.5 hPa | 0 mm | - | 0 W/m² | - |
| 1787772931 | 18.89° C | 83% | 1017.5 hPa | 0 mm | - | 0 W/m² | - |
| 1787772331 | 18.89° C | 83% | 1017.5 hPa | 0 mm | - | 0 W/m² | - |
| 1787771504 | 18.89° C | 82% | 1017.1 hPa | 0 mm | - | 0 W/m² | - |
| 1787771131 | 18.89° C | 80% | 1016.9 hPa | 0 mm | - | 0 W/m² | - |
| 1787770531 | 18.89° C | 80% | 1017 hPa | 0 mm | - | 0 W/m² | - |
| 1787769704 | 18.89° C | 80% | 1017 hPa | 0 mm | - | 0 W/m² | - |
| 1787769331 | 19.44° C | 74% | 1016.6 hPa | 0 mm | - | 0 W/m² | - |
| 1787768731 | 20° C | 76% | 1016.5 hPa | 0 mm | - | 0 W/m² | - |
| 1787767905 | 20.56° C | 73% | 1016.4 hPa | 0 mm | - | 0 W/m² | - |
| 1787767531 | 20.56° C | 73% | 1016.2 hPa | 0 mm | - | 7 W/m² | - |
| 1787766931 | 21.11° C | 71% | 1016.1 hPa | 0 mm | - | 13 W/m² | - |
| 1787766104 | 20.56° C | 78% | 1016.1 hPa | 0 mm | - | 33 W/m² | - |
| 1787765731 | 21.67° C | 70% | 1015.7 hPa | 0 mm | - | 52 W/m² | - |
| 1787765130 | 21.67° C | 69% | 1015.7 hPa | 0 mm | - | 72 W/m² | - |
| 1787764304 | 21.67° C | 70% | 1015.5 hPa | 0 mm | - | 52 W/m² | - |
* Rain latest hour (hover to see other rain measurements)
** Current wind speed in m/s (hover to see current wind gust speed)